Time;durP1;ratioP1;P1;durP2;ratioP2;P2;SDS_P1;SDS_P2;PMS_P1;PMS_P2;Temp;Humidity;BMP_temperature;BMP_pressure;BME280_temperature;BME280_humidity;BME280_pressure;Samples;Min_cycle;Max_cycle;Signal;HPM_P1;HPM_P2
2022/09/08 00:01:58;;;;;;;5.40;2.08;;;;;;;;;;4987659;28;20562;-80
2022/09/08 00:04:24;;;;;;;2.78;1.60;;;;;;;;;;4984982;28;20034;-82
2022/09/08 00:06:50;;;;;;;4.47;2.03;;;;;;;;;;4985520;28;20030;-80
2022/09/08 00:09:15;;;;;;;5.90;1.92;;;;;;;;;;4986441;28;20109;-82
2022/09/08 00:11:41;;;;;;;4.82;2.20;;;;;;;;;;5002232;28;20049;-80
2022/09/08 00:14:08;;;;;;;4.13;2.40;;;;;;;;;;4989504;28;20053;-81
2022/09/08 00:16:33;;;;;;;5.60;2.63;;;;;;;;;;4991183;28;20034;-79
2022/09/08 00:18:59;;;;;;;6.22;2.50;;;;;;;;;;4989741;28;20073;-78
2022/09/08 00:21:26;;;;;;;4.78;2.60;;;;;;;;;;4986473;28;20073;-81
2022/09/08 00:23:52;;;;;;;8.18;2.65;;;;;;;;;;4987596;28;20124;-81
2022/09/08 00:26:20;;;;;;;5.68;2.20;;;;;;;;;;4984436;28;20026;-80
2022/09/08 00:28:46;;;;;;;6.00;2.50;;;;;;;;;;4988404;28;21560;-80
2022/09/08 00:31:13;;;;;;;4.32;2.55;;;;;;;;;;4985614;28;20552;-80
2022/09/08 00:33:38;;;;;;;5.32;2.40;;;;;;;;;;5004580;28;20030;-80
2022/09/08 00:36:04;;;;;;;5.95;3.28;;;;;;;;;;4984959;28;20470;-77
2022/09/08 00:38:31;;;;;;;5.28;1.92;;;;;;;;;;4983718;28;20471;-80
2022/09/08 00:40:57;;;;;;;5.78;2.33;;;;;;;;;;4987590;28;20070;-80
2022/09/08 00:43:37;;;;;;;8.40;2.20;;;;;;;;;;5000708;28;20375;-78
2022/09/08 00:46:09;;;;;;;4.82;2.15;;;;;;;;;;4986979;28;20034;-80
2022/09/08 00:48:56;;;;;;;3.85;2.10;;;;;;;;;;5001791;28;20030;-78
2022/09/08 00:51:23;;;;;;;5.18;1.88;;;;;;;;;;4984154;28;20394;-77
2022/09/08 00:53:49;;;;;;;4.68;2.13;;;;;;;;;;4985207;28;21427;-77
2022/09/08 00:56:16;;;;;;;3.95;2.08;;;;;;;;;;5002417;28;20029;-80
2022/09/08 00:58:42;;;;;;;4.53;2.05;;;;;;;;;;4986650;28;20093;-77
2022/09/08 01:01:08;;;;;;;4.38;2.30;;;;;;;;;;4986930;28;20483;-78
2022/09/08 01:03:36;;;;;;;4.72;2.50;;;;;;;;;;4982828;28;20492;-80
2022/09/08 01:12:43;;;;;;;4.40;2.30;;;;;;;;;;4979448;28;20029;-80
2022/09/08 01:14:55;;;;;;;5.97;2.83;;;;;;;;;;4986173;28;20041;-91
2022/09/08 01:17:25;;;;;;;5.10;2.50;;;;;;;;;;4988634;28;20150;-90
2022/09/08 01:19:54;;;;;;;7.25;3.10;;;;;;;;;;4988196;28;20034;-92
2022/09/08 01:22:54;;;;;;;6.22;3.00;;;;;;;;;;4981999;28;20524;-91
2022/09/08 01:25:35;;;;;;;5.93;2.65;;;;;;;;;;4966200;28;20042;-91
2022/09/08 01:28:27;;;;;;;5.28;2.72;;;;;;;;;;4989893;28;20026;-90
2022/09/08 01:30:54;;;;;;;7.20;2.83;;;;;;;;;;5002458;28;20081;-92
2022/09/08 01:33:20;;;;;;;4.90;2.45;;;;;;;;;;4989434;28;20034;-90
2022/09/08 01:35:46;;;;;;;5.95;2.90;;;;;;;;;;4990535;28;20030;-89
2022/09/08 01:38:12;;;;;;;4.65;2.30;;;;;;;;;;4991087;28;20030;-90
2022/09/08 01:40:38;;;;;;;5.57;2.15;;;;;;;;;;4987305;28;20117;-90
2022/09/08 01:43:08;;;;;;;5.68;2.38;;;;;;;;;;4985279;28;20181;-90
2022/09/08 01:45:37;;;;;;;5.00;2.22;;;;;;;;;;4990360;28;20037;-91
2022/09/08 01:48:05;;;;;;;4.57;2.15;;;;;;;;;;4985846;28;20517;-90
2022/09/08 01:50:31;;;;;;;5.57;2.10;;;;;;;;;;4984831;28;20038;-93
2022/09/08 01:53:04;;;;;;;7.40;2.15;;;;;;;;;;4990616;28;20037;-91
2022/09/08 01:56:16;;;;;;;6.28;2.50;;;;;;;;;;4992021;28;20034;-93
2022/09/08 01:58:54;;;;;;;5.65;2.30;;;;;;;;;;4991300;28;20029;-91
2022/09/08 02:09:01;;;;;;;;;;;;;;;;;;;;;
2022/09/08 02:37:54;;;;;;;3.97;1.70;;;;;;;;;;4738388;29;20115;-93
2022/09/08 02:40:59;;;;;;;4.78;2.05;;;;;;;;;;4804540;29;20102;-93
2022/09/08 02:44:11;;;;;;;4.95;1.90;;;;;;;;;;4802238;29;20086;-93
2022/09/08 02:58:07;;;;;;;3.55;1.70;;;;;;;;;;4805347;29;20082;-93
2022/09/08 03:04:44;;;;;;;;;;;;;;;;;;;;;
2022/09/08 03:08:13;;;;;;;;;;;;;;;;;;;;;
2022/09/08 03:22:18;;;;;;;;;;;;;;;;;;;;;
2022/09/08 05:03:36;;;;;;;3.45;1.45;;;;;;;;;;4972791;23;20049;-80
2022/09/08 05:06:07;;;;;;;5.18;1.92;;;;;;;;;;5071702;23;20040;-80
2022/09/08 05:08:33;;;;;;;2.60;1.48;;;;;;;;;;5078857;28;20027;-80
2022/09/08 05:11:00;;;;;;;4.03;1.33;;;;;;;;;;5067154;28;20402;-79
2022/09/08 05:13:25;;;;;;;4.15;1.20;;;;;;;;;;5046741;28;20032;-81
2022/09/08 05:15:51;;;;;;;4.93;1.40;;;;;;;;;;5062227;28;20456;-81
2022/09/08 05:18:16;;;;;;;2.28;1.30;;;;;;;;;;5064367;28;20092;-80
2022/09/08 05:20:42;;;;;;;3.38;1.30;;;;;;;;;;5060311;28;20036;-79
2022/09/08 05:23:07;;;;;;;2.88;1.30;;;;;;;;;;5064846;28;20483;-80
2022/09/08 05:25:33;;;;;;;2.53;1.38;;;;;;;;;;5073946;28;20107;-80
2022/09/08 05:27:58;;;;;;;4.53;1.80;;;;;;;;;;5069120;28;20032;-78
2022/09/08 05:30:23;;;;;;;4.85;1.40;;;;;;;;;;5064158;28;20395;-79
2022/09/08 05:32:49;;;;;;;2.78;1.50;;;;;;;;;;5068809;28;20407;-81
2022/09/08 05:35:14;;;;;;;3.03;1.20;;;;;;;;;;5048271;28;20511;-81
2022/09/08 05:37:40;;;;;;;3.25;1.40;;;;;;;;;;5048456;28;20509;-80
2022/09/08 05:40:05;;;;;;;5.53;1.75;;;;;;;;;;5050609;28;20039;-81
2022/09/08 05:42:31;;;;;;;3.47;1.60;;;;;;;;;;5050117;28;20534;-80
2022/09/08 05:44:56;;;;;;;3.65;1.50;;;;;;;;;;5068401;28;20098;-81
2022/09/08 05:47:22;;;;;;;2.17;1.30;;;;;;;;;;5049790;28;20024;-80
2022/09/08 05:49:47;;;;;;;3.03;1.40;;;;;;;;;;5050138;28;20032;-81
2022/09/08 05:52:13;;;;;;;2.97;1.40;;;;;;;;;;5059788;28;20435;-80
2022/09/08 05:54:38;;;;;;;3.63;1.60;;;;;;;;;;5058896;28;20024;-81
2022/09/08 05:57:05;;;;;;;4.32;1.52;;;;;;;;;;5069611;28;20438;-80
2022/09/08 05:59:30;;;;;;;3.80;1.75;;;;;;;;;;5063797;28;20029;-81
2022/09/08 06:01:56;;;;;;;3.78;1.60;;;;;;;;;;5065351;28;20032;-81
2022/09/08 06:04:21;;;;;;;5.68;1.80;;;;;;;;;;5042978;28;20052;-80
2022/09/08 06:06:47;;;;;;;5.75;1.75;;;;;;;;;;5041819;28;20063;-80
2022/09/08 06:09:12;;;;;;;3.20;1.38;;;;;;;;;;5047051;28;20467;-80
2022/09/08 06:11:38;;;;;;;4.75;1.88;;;;;;;;;;5069138;28;20028;-80
2022/09/08 06:14:05;;;;;;;6.70;2.10;;;;;;;;;;5059563;28;20029;-80
2022/09/08 06:16:31;;;;;;;4.82;1.75;;;;;;;;;;5059839;28;20066;-80
2022/09/08 06:18:59;;;;;;;3.63;1.60;;;;;;;;;;5063845;28;20024;-80
2022/09/08 06:21:27;;;;;;;3.85;1.88;;;;;;;;;;5047610;28;20029;-80
2022/09/08 06:23:55;;;;;;;3.25;1.70;;;;;;;;;;5066214;28;20073;-80
2022/09/08 06:26:37;;;;;;;4.50;2.15;;;;;;;;;;5067198;28;20028;-80
2022/09/08 06:29:11;;;;;;;3.63;1.90;;;;;;;;;;5049703;28;20040;-79
2022/09/08 06:31:47;;;;;;;5.80;2.40;;;;;;;;;;5059251;28;20787;-79
2022/09/08 06:34:23;;;;;;;7.40;2.65;;;;;;;;;;5061845;28;20048;-80
2022/09/08 06:36:52;;;;;;;4.85;2.88;;;;;;;;;;5059715;28;20040;-80
2022/09/08 06:39:24;;;;;;;4.38;2.00;;;;;;;;;;5065864;28;20299;-80
2022/09/08 06:42:00;;;;;;;4.63;2.20;;;;;;;;;;5064546;28;20025;-80
2022/09/08 06:44:30;;;;;;;3.67;2.15;;;;;;;;;;5048763;28;20028;-80
2022/09/08 06:46:57;;;;;;;4.40;2.10;;;;;;;;;;5060641;28;20507;-79
2022/09/08 06:49:26;;;;;;;4.60;2.40;;;;;;;;;;5052943;28;20016;-80
2022/09/08 06:52:16;;;;;;;3.42;2.13;;;;;;;;;;5067906;28;20032;-80
2022/09/08 06:54:54;;;;;;;4.82;2.40;;;;;;;;;;5043099;28;20051;-80
2022/09/08 06:57:39;;;;;;;4.03;2.60;;;;;;;;;;5069346;28;20029;-80
2022/09/08 07:00:10;;;;;;;5.53;2.67;;;;;;;;;;5072375;28;20111;-79
2022/09/08 07:03:05;;;;;;;4.97;2.65;;;;;;;;;;5065139;28;20066;-80
2022/09/08 07:05:52;;;;;;;4.13;2.58;;;;;;;;;;5070323;28;20542;-80
2022/09/08 07:08:20;;;;;;;5.85;2.90;;;;;;;;;;5069599;28;20082;-80
2022/09/08 07:11:04;;;;;;;4.53;2.53;;;;;;;;;;5067822;28;20075;-80
2022/09/08 07:14:26;;;;;;;5.28;2.60;;;;;;;;;;5068194;28;20483;-80
2022/09/08 07:17:02;;;;;;;6.80;2.80;;;;;;;;;;4967760;28;20126;-80
2022/09/08 07:19:41;;;;;;;4.53;2.78;;;;;;;;;;5064710;28;20047;-80
2022/09/08 07:22:31;;;;;;;4.65;2.38;;;;;;;;;;5064728;28;20020;-80
2022/09/08 07:25:07;;;;;;;5.35;3.20;;;;;;;;;;5050446;28;20028;-80
2022/09/08 07:27:34;;;;;;;6.22;3.28;;;;;;;;;;5067630;28;20112;-81
2022/09/08 07:30:03;;;;;;;7.43;3.78;;;;;;;;;;5066170;28;20149;-80
2022/09/08 07:32:34;;;;;;;4.38;2.85;;;;;;;;;;5065064;28;20109;-81
2022/09/08 07:35:10;;;;;;;3.97;2.70;;;;;;;;;;5070634;28;20043;-81
2022/09/08 07:37:41;;;;;;;5.97;2.90;;;;;;;;;;5048378;28;20178;-81
2022/09/08 07:40:31;;;;;;;5.13;2.95;;;;;;;;;;5070391;28;20621;-81
2022/09/08 07:42:58;;;;;;;5.85;3.30;;;;;;;;;;5062150;28;20028;-81
2022/09/08 07:45:35;;;;;;;6.50;2.60;;;;;;;;;;5063339;28;20024;-81
2022/09/08 07:48:12;;;;;;;5.97;2.90;;;;;;;;;;5049617;28;20427;-81
2022/09/08 07:50:54;;;;;;;6.60;2.80;;;;;;;;;;5047551;28;20028;-80
2022/09/08 07:53:49;;;;;;;5.35;3.15;;;;;;;;;;5051753;28;20386;-81
2022/09/08 07:56:33;;;;;;;4.97;3.15;;;;;;;;;;5044822;28;20033;-81
2022/09/08 07:59:17;;;;;;;8.05;3.25;;;;;;;;;;5066346;28;20040;-81
2022/09/08 08:02:18;;;;;;;4.50;2.15;;;;;;;;;;5052427;28;20123;-81
2022/09/08 08:04:55;;;;;;;4.82;3.08;;;;;;;;;;5031812;28;20488;-81
2022/09/08 08:07:36;;;;;;;4.95;2.65;;;;;;;;;;5045333;28;20510;-81
2022/09/08 08:10:15;;;;;;;5.10;2.88;;;;;;;;;;5055986;28;20036;-81
2022/09/08 08:12:51;;;;;;;5.32;2.92;;;;;;;;;;5070469;28;20353;-81
2022/09/08 08:15:45;;;;;;;5.28;3.50;;;;;;;;;;5067616;28;20021;-81
2022/09/08 08:18:28;;;;;;;5.40;2.83;;;;;;;;;;5031553;28;20489;-81
2022/09/08 08:21:15;;;;;;;7.05;3.35;;;;;;;;;;5042846;28;20037;-81
2022/09/08 08:24:12;;;;;;;5.18;2.78;;;;;;;;;;5066958;28;20016;-81
2022/09/08 08:26:43;;;;;;;5.90;2.90;;;;;;;;;;5038483;28;20487;-81
2022/09/08 08:29:42;;;;;;;6.88;3.22;;;;;;;;;;5044140;28;20119;-81
2022/09/08 08:32:17;;;;;;;7.55;3.55;;;;;;;;;;5050196;28;20410;-80
2022/09/08 08:34:51;;;;;;;6.18;3.33;;;;;;;;;;5063800;28;20029;-81
2022/09/08 08:37:24;;;;;;;10.05;3.88;;;;;;;;;;5062541;28;20028;-81
2022/09/08 08:39:52;;;;;;;5.32;3.70;;;;;;;;;;5049056;28;20053;-80
2022/09/08 08:42:40;;;;;;;5.03;3.10;;;;;;;;;;5073379;28;20092;-81
2022/09/08 08:45:11;;;;;;;4.97;3.10;;;;;;;;;;5064240;28;20059;-81
2022/09/08 08:47:46;;;;;;;6.07;3.30;;;;;;;;;;5070190;28;20510;-81
2022/09/08 08:50:21;;;;;;;6.43;2.97;;;;;;;;;;5070713;28;20020;-81
2022/09/08 08:53:23;;;;;;;5.30;3.00;;;;;;;;;;5064189;28;20024;-81
2022/09/08 08:56:12;;;;;;;12.85;3.17;;;;;;;;;;5053292;28;20032;-81
2022/09/08 08:58:52;;;;;;;5.97;3.75;;;;;;;;;;5050851;28;20563;-81
2022/09/08 09:01:42;;;;;;;4.72;2.80;;;;;;;;;;5065062;28;20020;-81
2022/09/08 09:04:13;;;;;;;7.00;2.90;;;;;;;;;;5059909;28;20024;-80
2022/09/08 09:06:44;;;;;;;4.43;3.13;;;;;;;;;;5068633;28;20032;-82
2022/09/08 09:09:12;;;;;;;4.57;3.00;;;;;;;;;;5069984;28;20475;-81
2022/09/08 09:11:59;;;;;;;4.45;2.25;;;;;;;;;;5055607;28;20036;-81
2022/09/08 09:14:47;;;;;;;4.57;3.22;;;;;;;;;;5062887;28;20029;-82
2022/09/08 09:17:31;;;;;;;5.18;3.20;;;;;;;;;;5049469;28;20086;-81
2022/09/08 09:20:26;;;;;;;7.97;3.05;;;;;;;;;;5070591;28;20482;-81
2022/09/08 09:23:03;;;;;;;6.68;2.80;;;;;;;;;;5070052;28;20395;-81
2022/09/08 09:25:33;;;;;;;3.58;2.38;;;;;;;;;;5043759;28;20102;-81
2022/09/08 09:28:47;;;;;;;4.22;2.60;;;;;;;;;;5063470;28;20037;-81
2022/09/08 09:31:43;;;;;;;3.55;2.20;;;;;;;;;;5063495;28;20055;-81
2022/09/08 09:34:33;;;;;;;6.05;2.80;;;;;;;;;;5065183;28;20429;-80
2022/09/08 09:37:35;;;;;;;4.20;2.38;;;;;;;;;;5072388;28;20050;-81
2022/09/08 09:40:50;;;;;;;3.53;2.17;;;;;;;;;;5070975;28;20035;-81
2022/09/08 09:43:23;;;;;;;4.22;2.50;;;;;;;;;;4959884;28;20026;-81
2022/09/08 09:46:10;;;;;;;3.28;2.20;;;;;;;;;;5049308;28;20039;-81
2022/09/08 09:49:21;;;;;;;6.22;2.50;;;;;;;;;;5048161;28;20033;-80
2022/09/08 09:52:11;;;;;;;4.45;2.58;;;;;;;;;;5059532;28;20492;-80
2022/09/08 09:55:01;;;;;;;5.20;2.80;;;;;;;;;;5049062;28;20027;-81
2022/09/08 09:58:24;;;;;;;5.15;2.35;;;;;;;;;;5069018;28;20048;-81
2022/09/08 10:01:18;;;;;;;5.05;2.35;;;;;;;;;;4988323;28;20064;-81
2022/09/08 10:03:57;;;;;;;3.95;2.10;;;;;;;;;;4984234;28;20026;-81
2022/09/08 10:06:52;;;;;;;6.90;2.38;;;;;;;;;;5041845;28;20068;-80
2022/09/08 10:09:33;;;;;;;3.70;2.17;;;;;;;;;;5060299;28;20480;-81
2022/09/08 10:12:23;;;;;;;4.13;2.22;;;;;;;;;;5063745;28;20043;-81
2022/09/08 10:15:07;;;;;;;6.68;2.58;;;;;;;;;;5051601;28;20498;-80
2022/09/08 10:17:35;;;;;;;4.68;2.20;;;;;;;;;;5046734;28;20029;-81
2022/09/08 10:20:32;;;;;;;3.53;2.08;;;;;;;;;;5062963;28;20479;-80
2022/09/08 10:23:42;;;;;;;5.40;2.00;;;;;;;;;;5066888;28;20032;-81
2022/09/08 10:26:30;;;;;;;3.22;1.70;;;;;;;;;;5065837;28;20024;-80
2022/09/08 10:29:23;;;;;;;2.85;1.58;;;;;;;;;;5064288;28;20479;-81
2022/09/08 10:32:07;;;;;;;3.22;1.50;;;;;;;;;;5051457;28;20177;-81
2022/09/08 10:34:54;;;;;;;4.40;1.52;;;;;;;;;;5066072;28;20081;-82
2022/09/08 10:37:45;;;;;;;5.65;1.67;;;;;;;;;;5064089;28;20028;-81
2022/09/08 10:40:47;;;;;;;3.63;1.30;;;;;;;;;;5064283;28;20096;-81
2022/09/08 10:43:45;;;;;;;3.93;1.47;;;;;;;;;;5047060;28;20036;-82
2022/09/08 10:46:33;;;;;;;5.43;1.80;;;;;;;;;;5067050;28;20822;-81
2022/09/08 10:49:26;;;;;;;5.68;1.55;;;;;;;;;;5020894;28;20045;-82
2022/09/08 10:51:55;;;;;;;;;;;;;;;;;;5071029;28;20120;-81
2022/09/08 10:54:45;;;;;;;3.08;1.60;;;;;;;;;;5070676;28;19919;-83
2022/09/08 10:57:37;;;;;;;7.03;1.75;;;;;;;;;;5045111;28;20442;-82
2022/09/08 11:00:13;;;;;;;3.33;1.45;;;;;;;;;;5047692;28;20032;-82
2022/09/08 11:03:15;;;;;;;4.45;1.60;;;;;;;;;;5069657;28;20086;-82
2022/09/08 11:05:44;;;;;;;6.70;1.60;;;;;;;;;;5051470;28;20040;-81
2022/09/08 11:08:45;;;;;;;5.18;1.40;;;;;;;;;;5072934;28;20055;-81
2022/09/08 11:11:56;;;;;;;4.63;1.10;;;;;;;;;;5066425;28;20037;-81
2022/09/08 11:14:21;;;;;;;5.57;1.20;;;;;;;;;;5062550;28;20119;-81
2022/09/08 11:17:06;;;;;;;4.78;1.15;;;;;;;;;;5048982;28;20119;-81
2022/09/08 11:19:40;;;;;;;3.35;1.60;;;;;;;;;;5049712;28;20035;-81
2022/09/08 11:22:28;;;;;;;7.15;1.65;;;;;;;;;;5067774;28;20380;-81
2022/09/08 11:25:03;;;;;;;7.93;1.42;;;;;;;;;;5050291;28;20029;-81
2022/09/08 11:27:49;;;;;;;2.80;1.17;;;;;;;;;;5049506;28;20020;-80
2022/09/08 11:30:23;;;;;;;7.32;1.42;;;;;;;;;;5058726;28;20025;-80
2022/09/08 11:33:13;;;;;;;3.75;1.35;;;;;;;;;;5065830;28;20029;-79
2022/09/08 11:36:02;;;;;;;5.45;1.48;;;;;;;;;;5068173;28;20503;-81
2022/09/08 11:38:55;;;;;;;5.45;1.20;;;;;;;;;;5052601;28;20061;-80
2022/09/08 11:41:35;;;;;;;;;;;;;;;;;;5058506;28;20448;-81
2022/09/08 11:44:13;;;;;;;3.47;1.17;;;;;;;;;;5047442;28;19912;-81
2022/09/08 11:46:51;;;;;;;6.43;1.10;;;;;;;;;;5046301;28;20055;-81
2022/09/08 11:49:54;;;;;;;4.00;1.13;;;;;;;;;;5069843;28;20039;-81
2022/09/08 11:52:25;;;;;;;2.88;1.35;;;;;;;;;;5064221;28;20024;-81
2022/09/08 11:55:05;;;;;;;5.10;1.50;;;;;;;;;;5052330;28;20431;-81
2022/09/08 11:57:37;;;;;;;5.18;1.10;;;;;;;;;;5062124;28;20568;-81
2022/09/08 12:00:15;;;;;;;3.17;1.17;;;;;;;;;;5051116;28;20033;-81
2022/09/08 12:03:03;;;;;;;4.78;1.58;;;;;;;;;;5049369;28;20036;-81
2022/09/08 12:05:53;;;;;;;4.05;1.45;;;;;;;;;;5063215;28;20476;-81
2022/09/08 12:08:30;;;;;;;3.13;1.17;;;;;;;;;;5066711;28;20103;-81
2022/09/08 12:11:13;;;;;;;2.55;1.10;;;;;;;;;;5061493;28;20054;-81
2022/09/08 12:14:01;;;;;;;6.75;1.45;;;;;;;;;;5071169;28;20017;-80
2022/09/08 12:16:29;;;;;;;4.20;1.10;;;;;;;;;;5060022;28;20497;-80
2022/09/08 12:19:12;;;;;;;5.40;1.30;;;;;;;;;;5048565;28;20495;-81
2022/09/08 12:21:59;;;;;;;6.70;1.52;;;;;;;;;;5050920;28;20527;-80
2022/09/08 12:24:33;;;;;;;4.32;1.27;;;;;;;;;;5048555;28;20086;-81
2022/09/08 12:27:06;;;;;;;3.35;0.93;;;;;;;;;;5074459;28;20032;-81
2022/09/08 12:29:59;;;;;;;3.90;1.23;;;;;;;;;;5076966;28;20480;-81
2022/09/08 12:32:33;;;;;;;3.40;0.75;;;;;;;;;;5046810;28;20451;-81
2022/09/08 12:35:21;;;;;;;5.82;1.00;;;;;;;;;;5062205;28;20965;-81
2022/09/08 12:38:22;;;;;;;3.03;1.10;;;;;;;;;;5065917;28;20491;-81
2022/09/08 12:41:05;;;;;;;5.03;1.00;;;;;;;;;;5056316;28;20369;-81
2022/09/08 12:43:43;;;;;;;3.58;0.98;;;;;;;;;;5072873;28;20085;-81
2022/09/08 12:46:33;;;;;;;5.40;1.15;;;;;;;;;;5069202;28;20324;-80
2022/09/08 12:49:42;;;;;;;4.75;1.23;;;;;;;;;;5066352;28;20039;-80
2022/09/08 12:52:31;;;;;;;5.00;1.15;;;;;;;;;;5045339;28;20158;-81
2022/09/08 12:55:43;;;;;;;5.03;0.90;;;;;;;;;;5059322;28;20029;-82
2022/09/08 12:58:21;;;;;;;3.65;1.25;;;;;;;;;;5068791;28;20512;-81
2022/09/08 13:00:56;;;;;;;5.53;1.17;;;;;;;;;;5067975;28;20040;-81
2022/09/08 13:03:31;;;;;;;3.22;0.90;;;;;;;;;;5052487;28;20035;-81
2022/09/08 13:06:21;;;;;;;5.30;1.08;;;;;;;;;;5051787;28;20044;-81
2022/09/08 13:09:00;;;;;;;2.33;0.90;;;;;;;;;;5047443;28;20485;-82
2022/09/08 13:12:07;;;;;;;3.65;1.10;;;;;;;;;;5066811;28;20492;-81
2022/09/08 13:14:54;;;;;;;3.35;1.10;;;;;;;;;;4957232;28;20027;-80
2022/09/08 13:17:24;;;;;;;2.85;0.90;;;;;;;;;;4948291;28;20117;-81
2022/09/08 13:19:59;;;;;;;3.70;1.17;;;;;;;;;;5004737;28;20036;-81
2022/09/08 13:22:39;;;;;;;3.22;1.02;;;;;;;;;;5039856;28;20123;-81
2022/09/08 13:25:51;;;;;;;2.58;1.00;;;;;;;;;;5071165;28;20029;-80
2022/09/08 13:28:53;;;;;;;3.85;1.10;;;;;;;;;;5052774;28;20043;-81
2022/09/08 13:31:46;;;;;;;4.57;0.90;;;;;;;;;;5058055;28;20284;-81
2022/09/08 13:34:24;;;;;;;6.72;1.20;;;;;;;;;;5073379;28;20051;-81
2022/09/08 13:37:06;;;;;;;2.85;1.00;;;;;;;;;;5046284;28;20044;-80
2022/09/08 13:39:54;;;;;;;4.05;1.02;;;;;;;;;;5065107;28;20024;-81
2022/09/08 13:42:33;;;;;;;2.90;1.20;;;;;;;;;;5068326;28;20033;-81
2022/09/08 13:45:17;;;;;;;3.78;1.20;;;;;;;;;;5047669;28;20300;-81
2022/09/08 13:48:23;;;;;;;2.80;1.00;;;;;;;;;;5058525;28;20419;-81
2022/09/08 13:51:00;;;;;;;3.72;1.40;;;;;;;;;;5007285;28;20043;-81
2022/09/08 13:54:03;;;;;;;2.90;1.08;;;;;;;;;;5070412;28;20060;-80
2022/09/08 13:56:45;;;;;;;1.80;0.82;;;;;;;;;;5012948;28;20044;-81
2022/09/08 13:59:44;;;;;;;2.58;1.20;;;;;;;;;;5070448;28;20056;-80
2022/09/08 14:02:41;;;;;;;2.67;0.98;;;;;;;;;;5068633;28;20115;-81
2022/09/08 14:05:39;;;;;;;2.67;0.90;;;;;;;;;;5073561;28;20054;-81
2022/09/08 14:08:19;;;;;;;2.72;1.10;;;;;;;;;;5062319;28;20068;-81
2022/09/08 14:10:44;;;;;;;2.45;1.00;;;;;;;;;;5050736;28;20534;-82
2022/09/08 14:13:16;;;;;;;4.07;1.50;;;;;;;;;;5054103;28;20024;-81
2022/09/08 14:15:45;;;;;;;1.98;0.90;;;;;;;;;;5073412;28;20434;-81
2022/09/08 14:18:30;;;;;;;2.25;1.00;;;;;;;;;;5058680;28;20071;-81
2022/09/08 14:21:05;;;;;;;3.28;1.02;;;;;;;;;;5044075;28;20036;-81
2022/09/08 14:24:02;;;;;;;3.38;0.95;;;;;;;;;;5063774;28;20053;-81
2022/09/08 14:26:40;;;;;;;3.22;1.02;;;;;;;;;;5064260;28;20036;-82
2022/09/08 14:29:14;;;;;;;2.05;0.80;;;;;;;;;;5052311;28;20028;-81
2022/09/08 14:31:58;;;;;;;3.78;0.90;;;;;;;;;;5064892;28;20033;-81
2022/09/08 14:35:12;;;;;;;2.15;1.00;;;;;;;;;;5056839;28;20031;-81
2022/09/08 14:38:15;;;;;;;4.00;0.90;;;;;;;;;;5051356;28;20522;-82
2022/09/08 14:40:48;;;;;;;;;;;;;;;;;;5047215;28;20472;-82
2022/09/08 14:43:13;;;;;;;;;;;;;;;;;;5051875;28;20019;-81
2022/09/08 14:45:47;;;;;;;4.50;1.00;;;;;;;;;;5050970;28;19999;-82
2022/09/08 14:48:16;;;;;;;2.22;0.90;;;;;;;;;;5051751;28;20028;-82
2022/09/08 14:51:01;;;;;;;3.88;1.00;;;;;;;;;;5071682;28;20024;-82
2022/09/08 14:53:35;;;;;;;2.83;0.90;;;;;;;;;;5053972;28;20408;-80
2022/09/08 14:56:17;;;;;;;4.63;2.05;;;;;;;;;;5057270;28;20496;-82
2022/09/08 14:59:07;;;;;;;6.18;1.10;;;;;;;;;;5061663;28;20036;-81
2022/09/08 15:01:36;;;;;;;4.75;1.27;;;;;;;;;;5045138;28;20093;-81
2022/09/08 15:04:03;;;;;;;3.00;0.98;;;;;;;;;;5048270;28;20024;-82
2022/09/08 15:06:44;;;;;;;2.70;1.05;;;;;;;;;;5052207;28;20028;-82
2022/09/08 15:09:23;;;;;;;4.45;1.20;;;;;;;;;;5048823;28;20540;-81
2022/09/08 15:11:56;;;;;;;3.20;1.40;;;;;;;;;;5046501;28;20037;-81
2022/09/08 15:14:47;;;;;;;2.90;1.20;;;;;;;;;;5044351;28;20025;-82
2022/09/08 15:17:13;;;;;;;4.93;1.20;;;;;;;;;;5046225;28;20133;-81
2022/09/08 15:19:42;;;;;;;4.88;1.17;;;;;;;;;;5065229;28;20113;-81
2022/09/08 15:22:44;;;;;;;3.72;1.10;;;;;;;;;;5065578;28;20171;-81
2022/09/08 15:25:21;;;;;;;3.30;0.93;;;;;;;;;;5047608;28;20028;-81
2022/09/08 15:27:48;;;;;;;6.95;1.65;;;;;;;;;;5050878;28;20043;-81
2022/09/08 15:30:22;;;;;;;4.45;0.90;;;;;;;;;;5048008;28;20039;-82
2022/09/08 15:33:07;;;;;;;4.70;0.90;;;;;;;;;;5054423;28;21032;-81
2022/09/08 15:35:40;;;;;;;3.42;1.08;;;;;;;;;;5050790;28;20409;-81
2022/09/08 15:38:11;;;;;;;5.25;1.08;;;;;;;;;;5073140;28;20028;-81
2022/09/08 15:40:37;;;;;;;4.45;1.10;;;;;;;;;;5068555;28;20089;-82
2022/09/08 15:43:14;;;;;;;3.28;1.00;;;;;;;;;;5069592;28;20028;-82
2022/09/08 15:45:49;;;;;;;3.08;0.85;;;;;;;;;;5067997;28;20031;-82
2022/09/08 15:48:16;;;;;;;4.32;1.10;;;;;;;;;;5061676;28;20064;-82
2022/09/08 15:50:51;;;;;;;3.60;0.98;;;;;;;;;;5045820;28;20032;-82
2022/09/08 15:53:32;;;;;;;3.65;1.00;;;;;;;;;;5068795;28;20082;-81
2022/09/08 15:56:31;;;;;;;2.88;1.02;;;;;;;;;;5060465;28;20016;-81
2022/09/08 15:59:27;;;;;;;3.10;1.00;;;;;;;;;;5056633;28;20039;-81
2022/09/08 16:02:00;;;;;;;2.20;0.90;;;;;;;;;;5038304;28;20111;-79
2022/09/08 16:04:44;;;;;;;3.08;1.00;;;;;;;;;;5059230;28;20579;-81
2022/09/08 16:07:27;;;;;;;3.05;1.10;;;;;;;;;;5058550;28;20067;-81
2022/09/08 16:10:13;;;;;;;3.40;1.00;;;;;;;;;;5046943;28;20475;-81
2022/09/08 16:12:47;;;;;;;2.22;0.77;;;;;;;;;;5039142;28;20472;-80
2022/09/08 16:15:32;;;;;;;1.80;0.82;;;;;;;;;;5048251;28;20032;-81
2022/09/08 16:18:23;;;;;;;4.03;1.23;;;;;;;;;;5052229;28;20039;-81
2022/09/08 16:20:54;;;;;;;1.15;0.70;;;;;;;;;;5042540;28;20037;-80
2022/09/08 16:23:43;;;;;;;1.50;0.60;;;;;;;;;;5047766;28;20039;-81
2022/09/08 16:26:39;;;;;;;1.58;0.73;;;;;;;;;;5044051;28;20048;-82
2022/09/08 16:29:20;;;;;;;2.55;0.80;;;;;;;;;;5063108;28;20063;-81
2022/09/08 16:32:01;;;;;;;3.30;0.60;;;;;;;;;;5061974;28;20028;-82
2022/09/08 16:34:27;;;;;;;2.13;0.60;;;;;;;;;;5066707;28;20035;-82
2022/09/08 16:37:12;;;;;;;1.60;0.50;;;;;;;;;;5065143;28;20082;-82
2022/09/08 16:39:38;;;;;;;1.85;0.70;;;;;;;;;;5057644;28;20020;-81
2022/09/08 16:42:42;;;;;;;2.30;0.80;;;;;;;;;;5064423;28;20090;-80
2022/09/08 16:45:37;;;;;;;2.75;0.90;;;;;;;;;;5047287;28;20067;-82
2022/09/08 16:48:21;;;;;;;2.78;0.80;;;;;;;;;;5031809;28;20547;-81
2022/09/08 16:51:11;;;;;;;3.60;1.00;;;;;;;;;;5061999;28;20158;-81
2022/09/08 16:53:52;;;;;;;3.97;0.90;;;;;;;;;;5060416;28;20488;-82
2022/09/08 16:56:31;;;;;;;2.30;0.80;;;;;;;;;;5067911;28;20020;-81
2022/09/08 16:59:37;;;;;;;2.33;0.65;;;;;;;;;;5060203;28;20565;-82
2022/09/08 17:02:35;;;;;;;4.45;1.10;;;;;;;;;;5067352;28;20032;-82
2022/09/08 17:05:36;;;;;;;2.28;0.88;;;;;;;;;;5044560;28;20044;-82
2022/09/08 17:08:16;;;;;;;1.85;0.70;;;;;;;;;;4948256;28;20125;-82
2022/09/08 17:10:49;;;;;;;3.25;1.10;;;;;;;;;;5053823;28;20400;-82
2022/09/08 17:13:18;;;;;;;2.33;1.00;;;;;;;;;;5065367;28;20404;-82
2022/09/08 17:15:50;;;;;;;1.70;0.75;;;;;;;;;;5066967;28;20035;-82
2022/09/08 17:18:36;;;;;;;3.35;1.00;;;;;;;;;;5045346;28;20115;-82
2022/09/08 17:21:34;;;;;;;1.60;0.80;;;;;;;;;;5043477;28;20108;-82
2022/09/08 17:24:22;;;;;;;3.53;1.00;;;;;;;;;;5047081;28;20036;-82
2022/09/08 17:27:15;;;;;;;3.10;0.90;;;;;;;;;;5045503;28;20504;-83
2022/09/08 17:29:48;;;;;;;;;;;;;;;;;;5046835;28;20021;-82
2022/09/08 17:32:36;;;;;;;1.73;0.75;;;;;;;;;;5063832;28;19940;-82
2022/09/08 17:35:03;;;;;;;2.30;0.88;;;;;;;;;;5041437;28;20082;-81
2022/09/08 17:37:35;;;;;;;3.97;0.90;;;;;;;;;;5060346;28;20021;-82
2022/09/08 17:40:25;;;;;;;4.28;1.20;;;;;;;;;;5068827;28;20032;-82
2022/09/08 17:43:21;;;;;;;3.15;0.80;;;;;;;;;;5061416;28;20547;-83
2022/09/08 17:45:54;;;;;;;1.58;0.88;;;;;;;;;;5044070;28;20032;-82
2022/09/08 17:48:42;;;;;;;1.27;0.70;;;;;;;;;;5060658;28;20028;-83
2022/09/08 17:51:21;;;;;;;2.85;1.13;;;;;;;;;;5043582;28;20032;-80
2022/09/08 17:53:59;;;;;;;3.55;1.13;;;;;;;;;;5064129;28;20070;-82
2022/09/08 17:56:47;;;;;;;5.95;0.98;;;;;;;;;;5041662;28;20202;-80
2022/09/08 17:59:35;;;;;;;3.67;1.08;;;;;;;;;;5063902;28;20027;-82
2022/09/08 18:02:07;;;;;;;2.85;0.90;;;;;;;;;;5066130;28;20365;-82
2022/09/08 18:04:36;;;;;;;3.38;1.00;;;;;;;;;;5052348;28;20048;-82
2022/09/08 18:07:20;;;;;;;2.97;1.10;;;;;;;;;;5045489;28;20115;-82
2022/09/08 18:09:54;;;;;;;5.03;1.05;;;;;;;;;;5068613;28;20021;-83
2022/09/08 18:12:43;;;;;;;1.95;0.70;;;;;;;;;;5046374;28;20039;-81
2022/09/08 18:15:12;;;;;;;2.15;0.90;;;;;;;;;;5045477;28;20017;-82
2022/09/08 18:17:48;;;;;;;1.95;0.70;;;;;;;;;;5050013;28;20029;-82
2022/09/08 18:20:18;;;;;;;2.67;0.70;;;;;;;;;;5045769;28;20060;-81
2022/09/08 18:23:21;;;;;;;1.95;0.50;;;;;;;;;;5048177;28;20033;-79
2022/09/08 18:25:47;;;;;;;3.20;0.70;;;;;;;;;;5059662;28;20335;-80
2022/09/08 18:28:38;;;;;;;1.38;0.68;;;;;;;;;;5057721;28;20445;-81
2022/09/08 18:31:47;;;;;;;0.85;0.60;;;;;;;;;;5041577;28;20505;-82
2022/09/08 18:34:29;;;;;;;1.33;0.50;;;;;;;;;;5049202;28;20032;-82
2022/09/08 18:37:15;;;;;;;3.17;0.98;;;;;;;;;;5062751;28;20115;-82
2022/09/08 18:39:52;;;;;;;1.02;0.50;;;;;;;;;;5053297;28;20373;-82
2022/09/08 18:43:04;;;;;;;1.23;0.52;;;;;;;;;;5048573;28;20115;-80
2022/09/08 18:45:53;;;;;;;1.20;0.68;;;;;;;;;;5060515;28;20072;-81
2022/09/08 18:48:33;;;;;;;1.30;0.68;;;;;;;;;;5061809;28;20119;-81
2022/09/08 18:51:17;;;;;;;1.20;0.63;;;;;;;;;;5051510;28;20476;-81
2022/09/08 18:53:43;;;;;;;1.38;0.60;;;;;;;;;;5048101;28;20032;-81